createdAt,value
2018-11-06T00:01:55.270Z,77.43
2018-11-06T00:04:28.258Z,64.77
2018-11-06T00:06:57.095Z,70.27
2018-11-06T00:09:25.572Z,69.20
2018-11-06T00:11:54.637Z,67.80
2018-11-06T00:14:23.432Z,63.90
2018-11-06T00:16:52.379Z,58.27
2018-11-06T00:19:21.705Z,62.90
2018-11-06T00:21:50.128Z,76.87
2018-11-06T00:24:18.608Z,75.97
2018-11-06T00:26:47.109Z,69.13
2018-11-06T00:29:15.575Z,70.73
2018-11-06T00:31:44.025Z,61.63
2018-11-06T00:34:13.058Z,54.93
2018-11-06T00:36:41.883Z,51.83
2018-11-06T00:39:10.699Z,67.57
2018-11-06T00:41:39.819Z,67.43
2018-11-06T00:44:08.380Z,59.97
2018-11-06T00:46:36.958Z,61.27
2018-11-06T00:49:06.068Z,50.33
2018-11-06T00:51:34.848Z,51.47
2018-11-06T00:54:03.198Z,57.03
2018-11-06T00:56:31.644Z,65.83
2018-11-06T00:59:00.230Z,57.97
2018-11-06T01:01:29.469Z,66.73
2018-11-06T01:04:02.011Z,65.30
2018-11-06T01:06:30.457Z,58.37
2018-11-06T01:08:59.526Z,59.87
2018-11-06T01:11:27.988Z,60.83
2018-11-06T01:13:56.443Z,46.23
2018-11-06T01:16:24.782Z,59.10
2018-11-06T01:18:54.043Z,48.77
2018-11-06T01:21:22.452Z,66.00
2018-11-06T01:23:50.995Z,54.50
2018-11-06T01:26:19.640Z,48.03
2018-11-06T01:28:48.081Z,57.30
2018-11-06T01:31:16.602Z,51.73
2018-11-06T01:33:45.292Z,48.80
2018-11-06T01:36:13.718Z,58.13
2018-11-06T01:38:42.158Z,57.70
2018-11-06T01:41:10.665Z,54.57
2018-11-06T01:43:39.130Z,50.80
2018-11-06T01:46:07.686Z,54.43
2018-11-06T01:48:36.037Z,65.73
2018-11-06T01:51:04.513Z,66.63
2018-11-06T01:53:32.922Z,66.63
2018-11-06T01:56:01.449Z,56.03
2018-11-06T01:58:29.870Z,52.77
2018-11-06T02:00:58.569Z,66.40
2018-11-06T02:03:27.733Z,59.90
2018-11-06T02:05:56.285Z,68.17
2018-11-06T02:08:25.215Z,58.27
2018-11-06T02:10:53.622Z,65.83
2018-11-06T02:13:22.084Z,62.87
2018-11-06T02:15:50.551Z,56.63
2018-11-06T02:18:19.076Z,63.47
2018-11-06T02:20:47.523Z,68.33
2018-11-06T02:23:15.883Z,59.90
2018-11-06T02:25:44.363Z,60.70
2018-11-06T02:28:13.863Z,71.30
2018-11-06T02:30:42.319Z,60.20
2018-11-06T02:33:10.883Z,64.57
2018-11-06T02:35:39.327Z,66.63
2018-11-06T02:38:08.074Z,63.07
2018-11-06T02:40:36.439Z,63.67
2018-11-06T02:43:05.346Z,61.90
2018-11-06T02:45:33.824Z,60.17
2018-11-06T02:48:02.234Z,60.87
2018-11-06T02:50:31.452Z,53.87
2018-11-06T02:53:00.342Z,58.10
2018-11-06T02:55:28.752Z,59.43
2018-11-06T02:57:57.938Z,57.73
2018-11-06T03:00:26.453Z,64.53
2018-11-06T03:02:55.550Z,65.33
2018-11-06T03:05:24.616Z,71.47
2018-11-06T03:07:53.018Z,59.37
2018-11-06T03:10:21.395Z,60.30
2018-11-06T03:12:49.742Z,52.30
2018-11-06T03:15:18.117Z,58.63
2018-11-06T03:17:47.404Z,56.43
2018-11-06T03:20:16.244Z,66.20
2018-11-06T03:22:45.756Z,59.77
2018-11-06T03:25:14.237Z,59.97
2018-11-06T03:27:43.303Z,62.23
2018-11-06T03:30:13.547Z,56.83
2018-11-06T03:32:42.125Z,57.20
2018-11-06T03:35:11.762Z,67.77
2018-11-06T03:37:40.206Z,57.70
2018-11-06T03:40:10.424Z,62.73
2018-11-06T03:42:39.556Z,56.13
2018-11-06T03:45:08.442Z,58.47
2018-11-06T03:47:37.120Z,61.60
2018-11-06T03:52:58.833Z,67.50
2018-11-06T03:55:27.915Z,57.67
2018-11-06T03:57:58.043Z,66.13
2018-11-06T04:00:28.899Z,64.63
2018-11-06T04:03:00.096Z,65.07
2018-11-06T04:05:29.488Z,69.20
2018-11-06T04:07:57.975Z,65.30
2018-11-06T04:10:26.954Z,65.80
2018-11-06T04:12:59.311Z,60.13
2018-11-06T04:15:30.736Z,56.03
2018-11-06T04:18:01.505Z,61.97
2018-11-06T04:20:33.365Z,51.47
2018-11-06T04:23:01.807Z,53.97
2018-11-06T04:25:30.899Z,60.10
2018-11-06T04:28:03.059Z,59.03
2018-11-06T04:30:32.664Z,54.80
2018-11-06T04:33:01.447Z,52.03
2018-11-06T04:35:30.649Z,46.53
2018-11-06T04:37:59.976Z,65.03
2018-11-06T04:40:28.768Z,58.27
2018-11-06T04:42:59.992Z,56.30
2018-11-06T04:45:29.616Z,43.80
2018-11-06T04:47:58.362Z,54.13
2018-11-06T04:50:29.609Z,59.10
2018-11-06T04:52:59.381Z,60.63
2018-11-06T04:55:28.903Z,67.50
2018-11-06T04:57:58.577Z,57.77
2018-11-06T05:00:31.123Z,48.27
2018-11-06T05:03:04.120Z,57.77
2018-11-06T05:05:35.569Z,52.60
2018-11-06T05:08:06.193Z,60.10
2018-11-06T05:10:38.171Z,63.60
2018-11-06T05:13:09.024Z,67.33
2018-11-06T05:15:39.209Z,56.63
2018-11-06T05:18:08.429Z,57.73
2018-11-06T05:20:38.809Z,57.33
2018-11-06T05:23:10.733Z,62.73
2018-11-06T05:25:39.869Z,45.30
2018-11-06T05:28:08.561Z,57.13
2018-11-06T05:30:40.626Z,50.93
2018-11-06T05:33:11.855Z,58.30
2018-11-06T05:35:40.453Z,45.60
2018-11-06T05:38:08.958Z,45.80
2018-11-06T05:40:46.250Z,46.37
2018-11-06T05:43:17.373Z,50.53
2018-11-06T05:45:47.394Z,45.47
2018-11-06T05:48:16.013Z,59.60
2018-11-06T05:50:44.540Z,61.97
2018-11-06T05:53:13.094Z,49.80
2018-11-06T05:55:41.878Z,54.00
2018-11-06T05:58:10.592Z,47.00
2018-11-06T06:00:39.318Z,50.93
2018-11-06T06:03:07.762Z,43.43
2018-11-06T06:05:36.620Z,44.03
2018-11-06T06:08:07.537Z,45.33
2018-11-06T06:10:39.787Z,42.90
2018-11-06T06:13:09.780Z,48.70
2018-11-06T06:15:39.888Z,44.27
2018-11-06T06:18:09.048Z,41.37
2018-11-06T06:20:40.443Z,45.43
2018-11-06T06:23:11.652Z,49.80
2018-11-06T06:25:41.447Z,50.03
2018-11-06T06:28:10.348Z,44.67
2018-11-06T06:30:39.609Z,49.63
2018-11-06T06:33:08.101Z,50.53
2018-11-06T06:35:37.017Z,40.23
2018-11-06T06:38:05.921Z,47.33
2018-11-06T06:40:35.299Z,50.50
2018-11-06T06:43:04.082Z,51.80
2018-11-06T06:45:32.675Z,45.03
2018-11-06T06:48:01.144Z,41.87
2018-11-06T06:50:29.759Z,40.90
2018-11-06T06:52:58.253Z,45.77
2018-11-06T06:55:26.964Z,46.13
2018-11-06T06:57:55.609Z,56.53
2018-11-06T07:00:27.397Z,48.53
2018-11-06T07:02:56.516Z,54.57
2018-11-06T07:05:25.317Z,46.43
2018-11-06T07:07:53.789Z,49.07
2018-11-06T07:10:23.281Z,46.33
2018-11-06T07:12:52.436Z,40.77
2018-11-06T07:15:22.084Z,47.70
2018-11-06T07:17:51.615Z,46.40
2018-11-06T07:20:21.590Z,53.60
2018-11-06T07:22:51.969Z,46.07
2018-11-06T07:25:20.355Z,45.40
2018-11-06T07:27:49.089Z,43.97
2018-11-06T07:30:20.450Z,57.30
2018-11-06T07:32:48.966Z,57.23
2018-11-06T07:35:20.319Z,48.90
2018-11-06T07:37:48.560Z,39.40
2018-11-06T07:40:18.743Z,59.33
2018-11-06T07:42:49.183Z,47.13
2018-11-06T07:45:20.382Z,65.57
2018-11-06T07:47:48.795Z,58.03
2018-11-06T07:50:17.814Z,94.80
2018-11-06T07:52:46.298Z,63.97
2018-11-06T07:55:18.394Z,108.33
2018-11-06T07:57:46.968Z,61.30
2018-11-06T08:00:19.302Z,71.33
2018-11-06T08:02:49.254Z,56.57
2018-11-06T08:05:18.098Z,50.20
2018-11-06T08:07:47.354Z,45.07
2018-11-06T08:10:15.829Z,37.40
2018-11-06T08:12:45.609Z,35.07
2018-11-06T08:15:14.398Z,33.40
2018-11-06T08:17:43.732Z,33.17
2018-11-06T08:20:12.476Z,29.00
2018-11-06T08:22:40.911Z,27.73
2018-11-06T08:25:10.810Z,26.37
2018-11-06T08:27:40.171Z,19.80
2018-11-06T08:30:12.126Z,50.83
2018-11-06T08:32:42.680Z,23.67
2018-11-06T08:35:13.036Z,25.17
2018-11-06T08:37:41.932Z,31.63
2018-11-06T08:40:12.192Z,24.73
2018-11-06T08:42:41.795Z,22.80
2018-11-06T08:45:11.822Z,24.13
2018-11-06T08:47:44.047Z,21.83
2018-11-06T08:50:13.903Z,32.03
2018-11-06T08:52:43.742Z,22.43
2018-11-06T08:55:13.229Z,16.73
2018-11-06T08:57:42.480Z,19.23
2018-11-06T09:00:13.868Z,22.50
2018-11-06T09:02:43.764Z,17.73
2018-11-06T09:05:14.645Z,19.60
2018-11-06T09:07:43.185Z,21.70
2018-11-06T09:10:12.893Z,232.10
2018-11-06T09:12:44.533Z,55.77
2018-11-06T09:15:16.982Z,23.00
2018-11-06T09:17:47.878Z,21.00
2018-11-06T09:20:17.042Z,19.10
2018-11-06T09:22:46.372Z,14.43
2018-11-06T09:25:18.687Z,24.07
2018-11-06T09:27:48.638Z,25.87
2018-11-06T09:30:19.925Z,20.03
2018-11-06T09:32:51.062Z,30.73
2018-11-06T09:35:19.479Z,18.93
2018-11-06T09:37:49.251Z,19.67
2018-11-06T09:40:19.465Z,20.93
2018-11-06T09:42:48.343Z,24.87
2018-11-06T09:45:17.883Z,15.40
2018-11-06T09:47:47.179Z,12.30
2018-11-06T09:50:17.396Z,13.87
2018-11-06T09:52:47.791Z,20.10
2018-11-06T09:55:17.059Z,12.00
2018-11-06T09:57:47.335Z,19.23
2018-11-06T10:00:17.232Z,20.63
2018-11-06T10:02:45.677Z,19.87
2018-11-06T10:05:14.768Z,34.00
2018-11-06T10:07:43.257Z,17.80
2018-11-06T10:10:13.358Z,13.70
2018-11-06T10:12:42.368Z,14.20
2018-11-06T10:15:12.791Z,13.53
2018-11-06T10:17:42.396Z,11.27
2018-11-06T10:20:13.490Z,9.70
2018-11-06T10:22:41.941Z,14.47
2018-11-06T10:25:13.775Z,16.37
2018-11-06T10:27:42.563Z,22.60
2018-11-06T10:30:14.379Z,13.40
2018-11-06T10:32:43.016Z,16.23
2018-11-06T10:35:11.868Z,17.50
2018-11-06T10:37:40.345Z,15.20
2018-11-06T10:40:14.956Z,21.00
2018-11-06T10:42:44.152Z,14.87
2018-11-06T10:45:12.512Z,21.00
2018-11-06T10:47:41.117Z,18.67
2018-11-06T10:50:11.013Z,15.33
2018-11-06T10:52:39.552Z,18.03
2018-11-06T10:55:08.414Z,17.03
2018-11-06T10:57:37.939Z,21.30
2018-11-06T11:00:12.490Z,27.53
2018-11-06T11:02:45.051Z,25.80
2018-11-06T11:05:13.528Z,20.67
2018-11-06T11:07:41.940Z,21.27
2018-11-06T11:10:11.514Z,23.23
2018-11-06T11:12:42.358Z,26.30
2018-11-06T11:15:11.239Z,21.13
2018-11-06T11:17:40.041Z,30.37
2018-11-06T11:20:10.292Z,32.17
2018-11-06T11:22:40.519Z,31.47
2018-11-06T11:25:11.409Z,29.27
2018-11-06T11:27:39.938Z,27.90
2018-11-06T11:30:10.404Z,20.80
2018-11-06T11:32:39.903Z,28.40
2018-11-06T11:35:09.370Z,35.80
2018-11-06T11:37:37.731Z,23.63
2018-11-06T11:40:07.940Z,25.80
2018-11-06T11:42:36.399Z,19.40
2018-11-06T11:45:05.709Z,25.90
2018-11-06T11:47:34.251Z,24.73
2018-11-06T11:50:02.693Z,25.50
2018-11-06T11:52:31.369Z,22.77
2018-11-06T11:55:00.983Z,23.10
2018-11-06T11:57:29.414Z,21.13
2018-11-06T11:59:58.012Z,16.83
2018-11-06T12:02:26.578Z,18.40
2018-11-06T12:04:55.218Z,18.20
2018-11-06T12:07:24.716Z,19.30
2018-11-06T12:09:53.294Z,21.60
2018-11-06T12:12:21.855Z,17.13
2018-11-06T12:14:50.441Z,21.47
2018-11-06T12:17:18.840Z,16.47
2018-11-06T12:19:47.860Z,17.20
2018-11-06T12:22:16.282Z,19.23
2018-11-06T12:24:44.964Z,25.10
2018-11-06T12:27:13.170Z,22.30
2018-11-06T12:29:41.991Z,20.83
2018-11-06T12:32:11.222Z,19.00
2018-11-06T12:34:39.656Z,20.93
2018-11-06T12:37:08.749Z,22.27
2018-11-06T12:39:37.135Z,26.37
2018-11-06T12:42:05.933Z,19.07
2018-11-06T12:44:36.425Z,26.20
2018-11-06T12:47:05.035Z,29.13
2018-11-06T12:49:33.402Z,21.50
2018-11-06T12:52:01.820Z,23.97
2018-11-06T12:54:30.183Z,24.77
2018-11-06T12:56:58.575Z,16.37
2018-11-06T12:59:27.052Z,18.67
2018-11-06T13:01:55.517Z,13.63
2018-11-06T13:04:24.074Z,22.37
2018-11-06T13:06:52.571Z,20.00
2018-11-06T13:09:20.953Z,18.67
2018-11-06T13:11:49.493Z,19.53
2018-11-06T13:14:18.049Z,20.03
2018-11-06T13:16:46.653Z,15.63
2018-11-06T13:19:15.116Z,13.30
2018-11-06T13:21:43.562Z,20.80
2018-11-06T13:24:11.943Z,18.53
2018-11-06T13:26:40.849Z,17.60
2018-11-06T13:29:09.337Z,18.93
2018-11-06T13:31:38.060Z,22.77
2018-11-06T13:34:06.824Z,25.90
2018-11-06T13:36:35.358Z,23.00
2018-11-06T13:39:05.236Z,24.50
2018-11-06T13:41:33.815Z,19.10
2018-11-06T13:44:03.694Z,24.57
2018-11-06T13:46:31.851Z,19.90
2018-11-06T13:49:00.979Z,36.57
2018-11-06T13:51:30.146Z,22.90
2018-11-06T13:53:59.092Z,24.63
2018-11-06T13:56:29.346Z,23.50
2018-11-06T13:58:58.679Z,24.30
2018-11-06T14:01:27.508Z,21.33
2018-11-06T14:03:57.540Z,16.97
2018-11-06T14:06:26.715Z,20.03
2018-11-06T14:08:55.219Z,19.87
2018-11-06T14:11:23.695Z,18.60
2018-11-06T14:13:52.387Z,19.00
2018-11-06T14:16:22.647Z,16.20
2018-11-06T14:18:53.561Z,18.00
2018-11-06T14:21:23.618Z,25.00
2018-11-06T14:23:54.825Z,18.60
2018-11-06T14:26:23.249Z,18.87
2018-11-06T14:28:51.674Z,18.00
2018-11-06T14:31:21.810Z,22.30
2018-11-06T14:33:52.212Z,18.60
2018-11-06T14:36:20.721Z,19.27
2018-11-06T14:38:49.309Z,20.73
2018-11-06T14:41:18.026Z,28.33
2018-11-06T14:43:47.570Z,20.73
2018-11-06T14:46:18.060Z,24.53
2018-11-06T14:48:47.440Z,26.50
2018-11-06T14:51:16.354Z,24.27
2018-11-06T14:53:45.610Z,31.90
2018-11-06T14:56:14.184Z,25.67
2018-11-06T14:58:43.192Z,23.00
2018-11-06T15:01:11.607Z,26.43
2018-11-06T15:03:40.196Z,22.03
2018-11-06T15:06:08.728Z,44.43
2018-11-06T15:08:37.497Z,36.40
2018-11-06T15:11:06.683Z,42.10
2018-11-06T15:13:35.157Z,23.47
2018-11-06T15:16:03.656Z,31.93
2018-11-06T15:18:32.089Z,34.03
2018-11-06T15:21:02.418Z,39.17
2018-11-06T15:23:32.434Z,33.53
2018-11-06T15:26:01.485Z,29.30
2018-11-06T15:28:30.252Z,25.40
2018-11-06T15:30:58.962Z,26.17
2018-11-06T15:33:27.689Z,20.30
2018-11-06T15:35:56.787Z,23.67
2018-11-06T15:38:25.390Z,21.93
2018-11-06T15:40:55.163Z,19.77
2018-11-06T15:43:24.337Z,20.57
2018-11-06T15:45:52.877Z,20.63
2018-11-06T15:48:22.709Z,20.83
2018-11-06T15:50:51.095Z,25.40
2018-11-06T15:53:21.294Z,30.63
2018-11-06T15:55:50.883Z,20.50
2018-11-06T15:58:21.631Z,23.40
2018-11-06T16:00:50.249Z,17.33
2018-11-06T16:03:21.566Z,16.30
2018-11-06T16:05:55.995Z,21.53
2018-11-06T16:08:24.511Z,16.60
2018-11-06T16:10:53.315Z,19.47
2018-11-06T16:13:23.071Z,23.00
2018-11-06T16:15:51.640Z,20.33
2018-11-06T16:18:20.236Z,27.40
2018-11-06T16:20:48.685Z,22.77
2018-11-06T16:23:17.229Z,27.07
2018-11-06T16:25:46.111Z,29.40
2018-11-06T16:28:14.546Z,20.23
2018-11-06T16:30:43.112Z,25.30
2018-11-06T16:33:11.966Z,29.70
2018-11-06T16:35:45.627Z,24.77
2018-11-06T16:38:14.108Z,34.10
2018-11-06T16:40:42.571Z,32.77
2018-11-06T16:43:11.235Z,32.80
2018-11-06T16:45:39.602Z,44.33
2018-11-06T16:48:08.315Z,28.17
2018-11-06T16:50:39.267Z,31.00
2018-11-06T16:53:07.731Z,28.20
2018-11-06T16:55:39.006Z,27.47
2018-11-06T16:58:07.422Z,21.80
2018-11-06T17:00:36.523Z,29.80
2018-11-06T17:03:05.108Z,32.50
2018-11-06T17:05:33.654Z,25.80
2018-11-06T17:08:01.975Z,24.20
2018-11-06T17:10:31.154Z,19.70
2018-11-06T17:12:59.947Z,32.43
2018-11-06T17:15:28.360Z,24.20
2018-11-06T17:17:58.231Z,29.17
2018-11-06T17:20:26.883Z,22.43
2018-11-06T17:22:56.485Z,26.20
2018-11-06T17:25:24.976Z,32.23
2018-11-06T17:28:00.635Z,28.23
2018-11-06T17:30:34.930Z,33.20
2018-11-06T17:33:07.770Z,27.93
2018-11-06T17:35:47.037Z,32.63
2018-11-06T17:38:16.507Z,28.10
2018-11-06T17:40:45.551Z,34.63
2018-11-06T17:43:16.402Z,33.50
2018-11-06T17:45:50.713Z,19.50
2018-11-06T17:48:21.021Z,30.57
2018-11-06T17:50:52.560Z,22.27
2018-11-06T17:53:23.800Z,32.60
2018-11-06T17:55:52.428Z,22.70
2018-11-06T17:58:21.216Z,26.03
2018-11-06T18:00:50.680Z,25.77
2018-11-06T18:03:19.266Z,21.60
2018-11-06T18:05:48.488Z,26.23
2018-11-06T18:08:17.066Z,21.40
2018-11-06T18:10:45.708Z,31.27
2018-11-06T18:13:14.582Z,25.73
2018-11-06T18:15:42.993Z,21.43
2018-11-06T18:18:11.624Z,27.63
2018-11-06T18:20:46.138Z,31.10
2018-11-06T18:23:14.721Z,29.13
2018-11-06T18:25:43.396Z,27.90
2018-11-06T18:28:11.974Z,25.17
2018-11-06T18:30:43.000Z,24.73
2018-11-06T18:33:11.523Z,28.10
2018-11-06T18:35:41.147Z,24.37
2018-11-06T18:38:09.968Z,27.10
2018-11-06T18:40:38.474Z,25.23
2018-11-06T18:43:07.002Z,27.17
2018-11-06T18:45:36.282Z,35.50
2018-11-06T18:48:05.721Z,32.10
2018-11-06T18:50:34.424Z,24.27
2018-11-06T18:53:03.625Z,28.03
2018-11-06T18:55:37.291Z,43.03
2018-11-06T18:58:06.374Z,24.40
2018-11-06T19:00:35.746Z,29.83
2018-11-06T19:03:07.637Z,33.53
2018-11-06T19:05:36.620Z,28.13
2018-11-06T19:08:06.608Z,38.30
2018-11-06T19:10:35.112Z,31.73
2018-11-06T19:13:05.609Z,32.10
2018-11-06T19:15:37.687Z,29.13
2018-11-06T19:18:08.658Z,32.47
2018-11-06T19:20:42.004Z,35.63
2018-11-06T19:23:10.669Z,25.37
2018-11-06T19:25:39.689Z,30.30
2018-11-06T19:28:09.352Z,29.70
2018-11-06T19:30:38.698Z,32.87
2018-11-06T19:33:07.276Z,33.47
2018-11-06T19:35:37.151Z,23.83
2018-11-06T19:38:05.796Z,25.63
2018-11-06T19:40:36.096Z,30.30
2018-11-06T19:43:05.309Z,27.63
2018-11-06T19:45:34.965Z,41.50
2018-11-06T19:48:04.342Z,47.40
2018-11-06T19:50:33.657Z,46.57
2018-11-06T19:53:02.757Z,42.27
2018-11-06T19:55:32.242Z,42.17
2018-11-06T19:58:02.807Z,27.80
2018-11-06T20:00:31.187Z,24.60
2018-11-06T20:02:59.690Z,22.87
2018-11-06T20:05:28.357Z,26.80
2018-11-06T20:07:56.669Z,22.50
2018-11-06T20:10:25.567Z,25.50
2018-11-06T20:12:54.931Z,29.80
2018-11-06T20:15:23.678Z,21.43
2018-11-06T20:17:52.278Z,24.53
2018-11-06T20:20:24.778Z,29.73
2018-11-06T20:22:53.515Z,22.70
2018-11-06T20:25:22.086Z,26.73
2018-11-06T20:27:50.741Z,23.53
2018-11-06T20:30:22.033Z,29.00
2018-11-06T20:32:50.595Z,27.20
2018-11-06T20:35:20.043Z,26.97
2018-11-06T20:37:49.259Z,68.77
2018-11-06T20:40:19.424Z,92.17
2018-11-06T20:42:48.131Z,71.33
2018-11-06T20:45:18.106Z,53.43
2018-11-06T20:47:46.616Z,31.40
2018-11-06T20:50:18.148Z,32.20
2018-11-06T20:52:47.245Z,31.93
2018-11-06T20:55:16.565Z,34.23
2018-11-06T20:57:45.667Z,30.90
2018-11-06T21:00:21.206Z,46.03
2018-11-06T21:02:51.185Z,47.93
2018-11-06T21:05:19.740Z,39.00
2018-11-06T21:07:50.412Z,30.30
2018-11-06T21:10:20.405Z,28.27
2018-11-06T21:12:49.081Z,33.27
2018-11-06T21:17:55.006Z,43.00
2018-11-06T21:20:24.110Z,28.73
2018-11-06T21:22:54.124Z,44.33
2018-11-06T21:25:23.843Z,34.10
2018-11-06T21:27:55.704Z,33.63
2018-11-06T21:30:25.451Z,30.53
2018-11-06T21:32:59.440Z,34.30
2018-11-06T21:35:31.583Z,25.53
2018-11-06T21:38:00.405Z,28.17
2018-11-06T21:40:34.328Z,33.57
2018-11-06T21:43:07.987Z,30.97
2018-11-06T21:45:37.315Z,33.23
2018-11-06T21:48:06.687Z,27.30
2018-11-06T21:50:35.325Z,29.67
2018-11-06T21:53:07.980Z,32.83
2018-11-06T21:55:38.104Z,30.77
2018-11-06T21:58:06.630Z,32.50
2018-11-06T22:00:39.718Z,29.13
2018-11-06T22:03:08.198Z,30.10
2018-11-06T22:05:38.680Z,28.90
2018-11-06T22:08:07.319Z,32.00
2018-11-06T22:10:36.042Z,37.07
2018-11-06T22:13:04.585Z,30.30
2018-11-06T22:15:34.715Z,29.97
2018-11-06T22:18:03.482Z,28.83
2018-11-06T22:20:35.981Z,31.17
2018-11-06T22:23:05.420Z,34.40
2018-11-06T22:25:33.895Z,32.80
2018-11-06T22:28:03.074Z,26.70
2018-11-06T22:30:32.039Z,29.33
2018-11-06T22:33:01.230Z,26.30
2018-11-06T22:35:30.791Z,26.33
2018-11-06T22:38:03.248Z,20.47
2018-11-06T22:40:36.721Z,31.67
2018-11-06T22:43:06.744Z,27.90
2018-11-06T22:45:38.892Z,33.50
2018-11-06T22:48:08.148Z,36.97
2018-11-06T22:50:38.316Z,33.43
2018-11-06T22:53:14.127Z,38.53
2018-11-06T22:55:43.990Z,29.27
2018-11-06T22:58:13.486Z,32.03
2018-11-06T23:00:49.659Z,33.33
2018-11-06T23:03:20.380Z,30.33
2018-11-06T23:05:51.220Z,29.67
2018-11-06T23:08:24.283Z,46.97
2018-11-06T23:10:53.218Z,38.33
2018-11-06T23:13:22.707Z,38.20
2018-11-06T23:15:51.157Z,49.23
2018-11-06T23:18:25.822Z,45.63
2018-11-06T23:20:57.297Z,34.00
2018-11-06T23:23:26.771Z,34.10
2018-11-06T23:25:56.433Z,39.67
2018-11-06T23:28:25.944Z,30.90
2018-11-06T23:30:55.140Z,30.60
2018-11-06T23:33:23.874Z,32.93
2018-11-06T23:35:52.732Z,28.47
2018-11-06T23:38:23.024Z,33.53
2018-11-06T23:40:52.425Z,39.67
2018-11-06T23:43:21.112Z,33.50
2018-11-06T23:45:50.074Z,43.00
2018-11-06T23:48:18.463Z,38.00
2018-11-06T23:50:47.206Z,38.13
2018-11-06T23:53:15.617Z,26.83
2018-11-06T23:55:44.844Z,26.63
2018-11-06T23:58:13.205Z,37.20
